createdAt,value
2022-12-11T00:04:42.971Z,-18.57
2022-12-11T00:09:45.693Z,-18.58
2022-12-11T00:14:48.332Z,-18.58
2022-12-11T00:19:51.150Z,-18.51
2022-12-11T00:24:53.881Z,-18.48
2022-12-11T00:29:56.522Z,-18.49
2022-12-11T00:34:59.236Z,-18.54
2022-12-11T00:40:02.037Z,-18.61
2022-12-11T00:45:05.821Z,-18.66
2022-12-11T00:50:08.557Z,-18.72
2022-12-11T00:55:11.964Z,-18.75
2022-12-11T01:00:15.767Z,-18.82
2022-12-11T01:05:18.494Z,-18.80
2022-12-11T01:10:24.529Z,-18.88
2022-12-11T01:15:30.202Z,-18.98
2022-12-11T01:20:33.155Z,-18.96
2022-12-11T01:25:38.489Z,-19.03
2022-12-11T01:30:43.534Z,-19.11
2022-12-11T01:35:46.222Z,-19.12
2022-12-11T01:40:51.634Z,-19.16
2022-12-11T01:45:54.381Z,-19.25
2022-12-11T01:50:59.415Z,-19.27
2022-12-11T01:56:04.297Z,-19.36
2022-12-11T02:01:07.098Z,-19.43
2022-12-11T02:06:33.913Z,-19.42
2022-12-11T02:11:49.839Z,-19.46
2022-12-11T02:17:05.770Z,-19.47
2022-12-11T02:22:13.851Z,-19.55
2022-12-11T02:27:29.936Z,-19.67
2022-12-11T02:32:40.236Z,-19.76
2022-12-11T02:37:45.743Z,-19.88
2022-12-11T02:42:48.844Z,-19.90
2022-12-11T02:47:52.976Z,-19.84
2022-12-11T02:52:56.948Z,-20.01
2022-12-11T02:58:22.863Z,-19.84
2022-12-11T03:03:25.628Z,-19.85
2022-12-11T03:08:28.397Z,-19.92
2022-12-11T03:13:31.963Z,-19.88
2022-12-11T03:18:52.032Z,-20.01
2022-12-11T03:23:59.420Z,-19.72
2022-12-11T03:29:06.492Z,-19.65
2022-12-11T03:34:31.763Z,-19.61
2022-12-11T03:39:38.884Z,-19.55
2022-12-11T03:44:43.472Z,-19.47
2022-12-11T03:49:46.765Z,-19.41
2022-12-11T03:54:51.203Z,-19.37
2022-12-11T03:59:53.978Z,-19.22
2022-12-11T04:04:56.800Z,-19.19
2022-12-11T04:09:59.307Z,-19.12
2022-12-11T04:15:04.657Z,-19.03
2022-12-11T04:20:27.517Z,-18.99
2022-12-11T04:25:30.203Z,-18.93
2022-12-11T04:30:34.451Z,-18.86
2022-12-11T04:35:37.284Z,-18.76
2022-12-11T04:40:39.963Z,-18.72
2022-12-11T04:45:42.677Z,-18.66
2022-12-11T04:50:45.437Z,-18.50
2022-12-11T04:55:48.019Z,-18.44
2022-12-11T05:00:50.841Z,-18.34
2022-12-11T05:05:53.761Z,-18.33
2022-12-11T05:11:01.346Z,-18.31
2022-12-11T05:16:05.911Z,-18.40
2022-12-11T05:21:11.847Z,-18.34
2022-12-11T05:26:18.378Z,-18.30
2022-12-11T05:31:26.281Z,-18.28
2022-12-11T05:36:31.740Z,-18.30
2022-12-11T05:41:34.551Z,-18.27
2022-12-11T05:46:37.044Z,-18.27
2022-12-11T05:51:40.456Z,-18.18
2022-12-11T05:56:43.177Z,-18.15
2022-12-11T06:01:46.487Z,-18.13
2022-12-11T06:06:49.255Z,-18.22
2022-12-11T06:11:51.963Z,-18.26
2022-12-11T06:16:54.601Z,-18.30
2022-12-11T06:21:57.230Z,-18.40
2022-12-11T06:26:59.979Z,-18.40
2022-12-11T06:32:03.069Z,-18.72
2022-12-11T06:37:05.883Z,-18.54
2022-12-11T06:42:08.536Z,-18.57
2022-12-11T06:47:11.218Z,-18.51
2022-12-11T06:52:18.371Z,-18.44
2022-12-11T06:57:21.550Z,-18.34
2022-12-11T07:02:24.026Z,-18.29
2022-12-11T07:07:26.702Z,-18.39
2022-12-11T07:12:29.403Z,-18.34
2022-12-11T07:17:32.413Z,-18.49
2022-12-11T07:22:35.456Z,-18.75
2022-12-11T07:27:38.227Z,-18.62
2022-12-11T07:32:40.929Z,-18.73
2022-12-11T07:37:43.497Z,-18.90
2022-12-11T07:42:46.447Z,-18.97
2022-12-11T07:47:49.342Z,-19.10
2022-12-11T07:52:52.401Z,-19.05
2022-12-11T07:57:54.975Z,-19.13
2022-12-11T08:02:57.610Z,-19.30
2022-12-11T08:08:00.624Z,-19.31
2022-12-11T08:13:03.176Z,-19.23
2022-12-11T08:18:05.884Z,-19.28
2022-12-11T08:23:08.634Z,-19.54
2022-12-11T08:28:11.475Z,-19.38
2022-12-11T08:33:13.987Z,-19.53
2022-12-11T08:38:20.909Z,-19.92
2022-12-11T08:43:26.487Z,-19.89
2022-12-11T08:48:29.327Z,-19.99
2022-12-11T08:53:32.914Z,-20.22
2022-12-11T08:58:36.164Z,-20.02
2022-12-11T09:03:40.371Z,-20.13
2022-12-11T09:08:50.365Z,-20.24
2022-12-11T09:13:55.300Z,-20.31
2022-12-11T09:18:59.163Z,-20.39
2022-12-11T09:24:02.515Z,-20.47
2022-12-11T09:29:06.210Z,-20.51
2022-12-11T09:34:11.802Z,-20.61
2022-12-11T09:39:16.923Z,-20.72
2022-12-11T09:44:34.777Z,-20.72
2022-12-11T09:49:43.400Z,-20.72
2022-12-11T09:54:59.858Z,-20.84
2022-12-11T10:00:11.557Z,-20.84
2022-12-11T10:05:32.541Z,-20.87
2022-12-11T10:10:45.393Z,-20.85
2022-12-11T10:15:57.253Z,-20.83
2022-12-11T10:21:02.433Z,-20.95
2022-12-11T10:26:08.685Z,-21.13
2022-12-11T10:31:39.526Z,-21.20
2022-12-11T10:36:42.977Z,-21.29
2022-12-11T10:41:48.651Z,-21.55
2022-12-11T10:47:18.099Z,-21.56
2022-12-11T10:52:26.751Z,-21.71
2022-12-11T10:57:34.711Z,-21.93
2022-12-11T11:02:38.997Z,-21.89
2022-12-11T11:07:42.245Z,-21.92
2022-12-11T11:12:47.583Z,-21.97
2022-12-11T11:18:01.291Z,-22.10
2022-12-11T11:23:09.965Z,-22.04
2022-12-11T11:28:21.550Z,-22.19
2022-12-11T11:33:25.006Z,-22.13
2022-12-11T11:38:37.714Z,-22.20
2022-12-11T11:43:54.834Z,-22.22
2022-12-11T11:49:26.403Z,-22.23
2022-12-11T11:54:42.735Z,-22.27
2022-12-11T11:59:48.190Z,-22.37
2022-12-11T12:04:51.738Z,-22.38
2022-12-11T12:10:12.821Z,-22.40
2022-12-11T12:15:31.308Z,-22.41
2022-12-11T12:20:36.881Z,-22.44
2022-12-11T12:25:44.628Z,-22.48
2022-12-11T12:31:02.578Z,-22.50
2022-12-11T12:36:23.922Z,-22.52
2022-12-11T12:41:54.188Z,-22.51
2022-12-11T12:47:02.604Z,-22.50
2022-12-11T12:52:07.533Z,-22.57
2022-12-11T12:57:10.734Z,-22.63
2022-12-11T13:02:14.736Z,-22.76
2022-12-11T13:07:21.369Z,-23.14
2022-12-11T13:12:52.135Z,-23.04
2022-12-11T13:17:54.907Z,-23.16
2022-12-11T13:23:36.377Z,-23.21
2022-12-11T13:28:39.042Z,-23.27
2022-12-11T13:33:49.793Z,-23.37
2022-12-11T13:38:59.526Z,-23.52
2022-12-11T13:44:03.459Z,-23.48
2022-12-11T13:49:17.683Z,-23.55
2022-12-11T13:54:20.445Z,-23.62
2022-12-11T13:59:32.586Z,-23.72
2022-12-11T14:04:35.837Z,-23.79
2022-12-11T14:09:44.227Z,-23.82
2022-12-11T14:14:53.307Z,-23.88
2022-12-11T14:19:58.371Z,-23.91
2022-12-11T14:25:08.675Z,-23.95
2022-12-11T14:30:22.195Z,-24.09
2022-12-11T14:35:34.257Z,-24.04
2022-12-11T14:40:43.655Z,-24.10
2022-12-11T14:45:49.039Z,-24.20
2022-12-11T14:50:55.930Z,-24.20
2022-12-11T14:56:01.910Z,-24.19
2022-12-11T15:01:22.337Z,-24.12
2022-12-11T15:06:29.262Z,-24.08
2022-12-11T15:11:33.123Z,-24.10
2022-12-11T15:16:39.016Z,-23.99
2022-12-11T15:21:42.019Z,-24.05
2022-12-11T15:26:46.343Z,-24.07
2022-12-11T15:32:19.473Z,-23.97
2022-12-11T15:37:27.970Z,-23.87
2022-12-11T15:42:34.689Z,-23.73
2022-12-11T15:47:37.721Z,-23.52
2022-12-11T15:52:40.520Z,-23.37
2022-12-11T15:57:46.817Z,-23.08
2022-12-11T16:02:49.507Z,-22.93
2022-12-11T16:07:56.852Z,-22.83
2022-12-11T16:13:03.126Z,-22.83
2022-12-11T16:18:12.742Z,-22.82
2022-12-11T16:23:16.715Z,-23.18
2022-12-11T16:28:21.519Z,-23.14
2022-12-11T16:33:26.757Z,-23.37
2022-12-11T16:38:29.749Z,-23.41
2022-12-11T16:43:33.196Z,-23.46
2022-12-11T16:48:36.143Z,-23.48
2022-12-11T16:53:39.019Z,-23.53
2022-12-11T16:58:41.789Z,-23.43
2022-12-11T17:03:44.870Z,-23.55
2022-12-11T17:08:47.981Z,-23.54
2022-12-11T17:13:58.082Z,-23.66
2022-12-11T17:19:01.015Z,-23.83
2022-12-11T17:24:03.761Z,-23.95
2022-12-11T17:29:06.524Z,-24.26
2022-12-11T17:34:09.178Z,-24.26
2022-12-11T17:39:11.877Z,-24.35
2022-12-11T17:44:14.638Z,-24.44
2022-12-11T17:49:17.649Z,-24.65
2022-12-11T17:54:20.575Z,-24.62
2022-12-11T17:59:23.277Z,-24.67
2022-12-11T18:04:26.289Z,-24.76
2022-12-11T18:09:29.026Z,-24.92
2022-12-11T18:14:31.908Z,-24.89
2022-12-11T18:19:34.684Z,-25.06
2022-12-11T18:24:37.409Z,-25.05
2022-12-11T18:29:40.267Z,-25.13
2022-12-11T18:34:43.144Z,-25.17
2022-12-11T18:39:45.832Z,-25.27
2022-12-11T18:44:48.602Z,-25.18
2022-12-11T18:49:51.392Z,-25.22
2022-12-11T18:54:54.170Z,-25.34
2022-12-11T18:59:57.309Z,-25.30
2022-12-11T19:05:00.240Z,-25.35
2022-12-11T19:10:02.900Z,-25.34
2022-12-11T19:15:06.498Z,-25.35
2022-12-11T19:20:40.159Z,-25.41
2022-12-11T19:25:33.493Z,-25.43
2022-12-11T19:30:36.289Z,-25.57
2022-12-11T19:35:38.892Z,-25.78
2022-12-11T19:40:42.829Z,-25.56
2022-12-11T19:45:46.251Z,-25.62
2022-12-11T19:50:49.084Z,-25.84
2022-12-11T19:55:52.598Z,-25.75
2022-12-11T20:00:55.362Z,-25.89
2022-12-11T20:06:06.449Z,-25.82
2022-12-11T20:11:15.883Z,-25.96
2022-12-11T20:16:33.725Z,-25.89
2022-12-11T20:21:43.386Z,-25.84
2022-12-11T20:26:47.498Z,-25.87
2022-12-11T20:31:51.393Z,-25.83
2022-12-11T20:36:54.525Z,-25.98
2022-12-11T20:41:57.226Z,-25.94
2022-12-11T20:47:00.049Z,-25.99
2022-12-11T20:52:03.018Z,-26.11
2022-12-11T20:57:05.707Z,-26.08
2022-12-11T21:02:11.485Z,-26.08
2022-12-11T21:07:14.289Z,-26.09
2022-12-11T21:12:16.958Z,-26.14
2022-12-11T21:17:19.675Z,-26.19
2022-12-11T21:22:22.422Z,-26.40
2022-12-11T21:27:25.184Z,-26.19
2022-12-11T21:32:28.095Z,-26.26
2022-12-11T21:37:30.885Z,-26.20
2022-12-11T21:42:33.828Z,-26.20
2022-12-11T21:47:36.540Z,-26.24
2022-12-11T21:52:39.418Z,-26.29
2022-12-11T21:57:42.116Z,-26.35
2022-12-11T22:02:44.748Z,-26.41
2022-12-11T22:07:47.544Z,-26.54
2022-12-11T22:12:50.335Z,-26.31
2022-12-11T22:17:53.044Z,-26.23
2022-12-11T22:22:55.675Z,-26.34
2022-12-11T22:27:58.336Z,-26.36
2022-12-11T22:33:01.104Z,-26.46
2022-12-11T22:38:04.419Z,-26.42
2022-12-11T22:43:07.260Z,-26.38
2022-12-11T22:48:10.219Z,-26.35
2022-12-11T22:53:13.150Z,-26.47
2022-12-11T22:58:21.394Z,-26.43
2022-12-11T23:03:24.447Z,-26.49
2022-12-11T23:08:27.255Z,-26.67
2022-12-11T23:13:30.009Z,-26.58
2022-12-11T23:18:33.218Z,-26.72
2022-12-11T23:23:35.984Z,-26.70
2022-12-11T23:28:40.266Z,-27.19
2022-12-11T23:33:42.981Z,-26.78
2022-12-11T23:38:50.930Z,-26.81
2022-12-11T23:43:57.158Z,-26.81
2022-12-11T23:48:59.825Z,-26.84
2022-12-11T23:54:02.476Z,-27.14
2022-12-11T23:59:05.126Z,-26.97
